sensor_id;sensor_type;location;lat;lon;timestamp;pressure;altitude;pressure_sealevel;temperature;humidity
42601;BME280;28229;48.856;9.088;2023-07-31T00:01:08;98000.19;;;15.52;71.79
42601;BME280;28229;48.856;9.088;2023-07-31T00:03:34;97998.72;;;15.61;71.34
42601;BME280;28229;48.856;9.088;2023-07-31T00:06:01;98000.06;;;15.64;71.16
42601;BME280;28229;48.856;9.088;2023-07-31T00:08:27;97999.81;;;15.66;70.89
42601;BME280;28229;48.856;9.088;2023-07-31T00:10:53;98003.81;;;15.68;71.24
42601;BME280;28229;48.856;9.088;2023-07-31T00:13:19;98001.41;;;15.67;70.87
42601;BME280;28229;48.856;9.088;2023-07-31T00:15:45;98006.22;;;15.70;70.85
42601;BME280;28229;48.856;9.088;2023-07-31T00:18:26;98006.22;;;15.70;70.94
42601;BME280;28229;48.856;9.088;2023-07-31T00:20:52;97999.81;;;15.66;71.56
42601;BME280;28229;48.856;9.088;2023-07-31T00:23:18;98001.31;;;15.56;71.95
42601;BME280;28229;48.856;9.088;2023-07-31T00:25:44;98004.69;;;15.52;71.93
42601;BME280;28229;48.856;9.088;2023-07-31T00:28:10;98007.09;;;15.53;71.99
42601;BME280;28229;48.856;9.088;2023-07-31T00:30:36;98007.34;;;15.52;72.13
42601;BME280;28229;48.856;9.088;2023-07-31T00:33:02;98005.94;;;15.44;72.70
42601;BME280;28229;48.856;9.088;2023-07-31T00:35:29;98006.97;;;15.43;73.42
42601;BME280;28229;48.856;9.088;2023-07-31T00:37:57;98014.06;;;15.37;74.44
42601;BME280;28229;48.856;9.088;2023-07-31T00:40:23;98016.25;;;15.40;74.12
42601;BME280;28229;48.856;9.088;2023-07-31T00:42:49;98010.38;;;15.38;74.86
42601;BME280;28229;48.856;9.088;2023-07-31T00:45:16;98005.25;;;15.32;75.95
42601;BME280;28229;48.856;9.088;2023-07-31T00:47:42;98010.72;;;15.25;76.38
42601;BME280;28229;48.856;9.088;2023-07-31T00:50:08;98011.22;;;15.22;76.64
42601;BME280;28229;48.856;9.088;2023-07-31T00:52:35;98002.94;;;15.18;76.56
42601;BME280;28229;48.856;9.088;2023-07-31T00:55:03;97994.25;;;15.01;77.06
42601;BME280;28229;48.856;9.088;2023-07-31T00:57:32;97991.47;;;14.91;77.13
42601;BME280;28229;48.856;9.088;2023-07-31T00:59:58;97990.28;;;14.81;77.68
42601;BME280;28229;48.856;9.088;2023-07-31T01:02:25;97993.09;;;14.75;78.30
42601;BME280;28229;48.856;9.088;2023-07-31T01:04:52;97994.78;;;14.64;78.26
42601;BME280;28229;48.856;9.088;2023-07-31T01:07:31;97987.78;;;14.58;78.64
42601;BME280;28229;48.856;9.088;2023-07-31T01:10:07;97996.22;;;14.55;78.73
42601;BME280;28229;48.856;9.088;2023-07-31T01:12:34;97983.75;;;14.55;78.79
42601;BME280;28229;48.856;9.088;2023-07-31T01:17:26;97975.38;;;14.58;78.58
42601;BME280;28229;48.856;9.088;2023-07-31T01:19:54;97980.31;;;14.55;79.52
42601;BME280;28229;48.856;9.088;2023-07-31T01:28:06;97959.47;;;14.41;80.35
42601;BME280;28229;48.856;9.088;2023-07-31T01:30:37;97960.56;;;14.45;80.66
42601;BME280;28229;48.856;9.088;2023-07-31T01:33:07;97964.75;;;14.41;80.90
42601;BME280;28229;48.856;9.088;2023-07-31T01:35:34;97961.16;;;14.47;80.41
42601;BME280;28229;48.856;9.088;2023-07-31T01:38:01;97954.72;;;14.43;80.69
42601;BME280;28229;48.856;9.088;2023-07-31T01:40:27;97955.78;;;14.42;80.90
42601;BME280;28229;48.856;9.088;2023-07-31T01:42:53;97956.91;;;14.46;81.15
42601;BME280;28229;48.856;9.088;2023-07-31T01:45:19;97950.00;;;14.45;81.36
42601;BME280;28229;48.856;9.088;2023-07-31T01:47:46;97948.47;;;14.50;81.15
42601;BME280;28229;48.856;9.088;2023-07-31T01:50:12;97942.13;;;14.51;81.03
42601;BME280;28229;48.856;9.088;2023-07-31T01:52:39;97948.47;;;14.50;80.84
42601;BME280;28229;48.856;9.088;2023-07-31T01:55:05;97947.50;;;14.56;79.91
42601;BME280;28229;48.856;9.088;2023-07-31T01:57:31;97943.75;;;14.52;80.32
42601;BME280;28229;48.856;9.088;2023-07-31T01:59:57;97941.09;;;14.52;79.86
42601;BME280;28229;48.856;9.088;2023-07-31T02:02:23;97937.38;;;14.53;79.84
42601;BME280;28229;48.856;9.088;2023-07-31T02:04:51;97935.88;;;14.57;79.66
42601;BME280;28229;48.856;9.088;2023-07-31T02:07:17;97925.88;;;14.59;79.35
42601;BME280;28229;48.856;9.088;2023-07-31T02:09:43;97922.19;;;14.60;79.28
42601;BME280;28229;48.856;9.088;2023-07-31T02:12:10;97925.41;;;14.62;79.49
42601;BME280;28229;48.856;9.088;2023-07-31T02:14:50;97925.94;;;14.64;79.80
42601;BME280;28229;48.856;9.088;2023-07-31T02:17:16;97916.47;;;14.51;80.72
42601;BME280;28229;48.856;9.088;2023-07-31T02:19:42;97920.00;;;14.57;80.51
42601;BME280;28229;48.856;9.088;2023-07-31T02:22:08;97912.06;;;14.57;80.48
42601;BME280;28229;48.856;9.088;2023-07-31T02:24:35;97919.19;;;14.56;80.48
42601;BME280;28229;48.856;9.088;2023-07-31T02:27:01;97913.09;;;14.56;81.06
42601;BME280;28229;48.856;9.088;2023-07-31T02:29:30;97910.91;;;14.53;81.16
42601;BME280;28229;48.856;9.088;2023-07-31T02:31:56;97906.69;;;14.52;80.81
42601;BME280;28229;48.856;9.088;2023-07-31T02:34:22;97898.75;;;14.52;80.67
42601;BME280;28229;48.856;9.088;2023-07-31T02:36:51;97900.75;;;14.44;80.68
42601;BME280;28229;48.856;9.088;2023-07-31T02:39:18;97900.44;;;14.41;81.15
42601;BME280;28229;48.856;9.088;2023-07-31T02:41:58;97894.91;;;14.42;81.25
42601;BME280;28229;48.856;9.088;2023-07-31T02:44:24;97897.78;;;14.41;80.82
42601;BME280;28229;48.856;9.088;2023-07-31T02:46:50;97892.03;;;14.44;80.43
42601;BME280;28229;48.856;9.088;2023-07-31T02:49:17;97889.63;;;14.42;80.43
42601;BME280;28229;48.856;9.088;2023-07-31T02:51:43;97886.09;;;14.37;80.38
42601;BME280;28229;48.856;9.088;2023-07-31T02:54:09;97890.56;;;14.36;80.95
42601;BME280;28229;48.856;9.088;2023-07-31T02:56:35;97888.75;;;14.37;80.64
42601;BME280;28229;48.856;9.088;2023-07-31T02:59:01;97890.88;;;14.40;80.13
42601;BME280;28229;48.856;9.088;2023-07-31T03:01:27;97891.13;;;14.38;80.36
42601;BME280;28229;48.856;9.088;2023-07-31T03:03:54;97893.72;;;14.33;80.90
42601;BME280;28229;48.856;9.088;2023-07-31T03:06:20;97891.88;;;14.34;80.80
42601;BME280;28229;48.856;9.088;2023-07-31T03:08:46;97896.84;;;14.30;81.85
42601;BME280;28229;48.856;9.088;2023-07-31T03:11:12;97900.03;;;14.32;82.20
42601;BME280;28229;48.856;9.088;2023-07-31T03:13:38;97903.25;;;14.34;82.33
42601;BME280;28229;48.856;9.088;2023-07-31T03:16:04;97892.59;;;14.29;81.83
42601;BME280;28229;48.856;9.088;2023-07-31T03:18:31;97897.41;;;14.32;81.93
42601;BME280;28229;48.856;9.088;2023-07-31T03:20:57;97888.91;;;14.30;82.30
42601;BME280;28229;48.856;9.088;2023-07-31T03:23:23;97892.81;;;14.27;82.70
42601;BME280;28229;48.856;9.088;2023-07-31T03:26:01;97896.75;;;14.25;82.69
42601;BME280;28229;48.856;9.088;2023-07-31T03:28:29;97893.56;;;14.23;82.76
42601;BME280;28229;48.856;9.088;2023-07-31T03:30:56;97903.00;;;14.19;82.12
42601;BME280;28229;48.856;9.088;2023-07-31T03:33:22;97895.56;;;14.16;82.83
42601;BME280;28229;48.856;9.088;2023-07-31T03:35:49;97895.00;;;14.14;82.66
42601;BME280;28229;48.856;9.088;2023-07-31T03:38:15;97889.72;;;14.14;82.69
42601;BME280;28229;48.856;9.088;2023-07-31T03:40:41;97893.88;;;14.09;82.60
42601;BME280;28229;48.856;9.088;2023-07-31T03:43:07;97892.94;;;14.16;82.45
42601;BME280;28229;48.856;9.088;2023-07-31T03:45:34;97902.94;;;14.14;82.35
42601;BME280;28229;48.856;9.088;2023-07-31T03:48:00;97905.44;;;14.03;82.87
42601;BME280;28229;48.856;9.088;2023-07-31T03:50:26;97896.50;;;14.09;82.41
42601;BME280;28229;48.856;9.088;2023-07-31T03:52:52;97907.00;;;14.04;82.51
42601;BME280;28229;48.856;9.088;2023-07-31T03:55:19;97898.84;;;14.06;82.40
42601;BME280;28229;48.856;9.088;2023-07-31T03:57:45;97894.38;;;14.06;82.33
42601;BME280;28229;48.856;9.088;2023-07-31T04:00:11;97902.22;;;14.01;82.39
42601;BME280;28229;48.856;9.088;2023-07-31T04:02:41;97895.41;;;14.05;82.17
42601;BME280;28229;48.856;9.088;2023-07-31T04:05:07;97892.28;;;14.08;82.21
42601;BME280;28229;48.856;9.088;2023-07-31T04:07:34;97890.19;;;14.11;81.83
42601;BME280;28229;48.856;9.088;2023-07-31T04:10:00;97893.09;;;14.09;82.36
42601;BME280;28229;48.856;9.088;2023-07-31T04:12:26;97894.94;;;14.08;82.20
42601;BME280;28229;48.856;9.088;2023-07-31T04:14:52;97892.59;;;14.12;82.12
42601;BME280;28229;48.856;9.088;2023-07-31T04:17:18;97886.50;;;14.12;82.90
42601;BME280;28229;48.856;9.088;2023-07-31T04:19:44;97891.06;;;14.16;82.29
42601;BME280;28229;48.856;9.088;2023-07-31T04:22:11;97886.66;;;14.22;82.23
42601;BME280;28229;48.856;9.088;2023-07-31T04:24:37;97891.47;;;14.25;82.40
42601;BME280;28229;48.856;9.088;2023-07-31T04:27:03;97895.38;;;14.22;82.51
42601;BME280;28229;48.856;9.088;2023-07-31T04:29:29;97891.16;;;14.21;82.60
42601;BME280;28229;48.856;9.088;2023-07-31T04:31:55;97884.81;;;14.22;82.67
42601;BME280;28229;48.856;9.088;2023-07-31T04:34:21;97887.72;;;14.21;82.79
42601;BME280;28229;48.856;9.088;2023-07-31T04:36:47;97885.72;;;14.28;82.00
42601;BME280;28229;48.856;9.088;2023-07-31T04:39:14;97888.75;;;14.37;81.39
42601;BME280;28229;48.856;9.088;2023-07-31T04:41:40;97898.03;;;14.39;81.90
42601;BME280;28229;48.856;9.088;2023-07-31T04:44:06;97888.25;;;14.40;81.57
42601;BME280;28229;48.856;9.088;2023-07-31T04:46:32;97893.38;;;14.46;81.84
42601;BME280;28229;48.856;9.088;2023-07-31T04:48:58;97889.94;;;14.46;82.34
42601;BME280;28229;48.856;9.088;2023-07-31T04:51:24;97888.16;;;14.52;81.39
42601;BME280;28229;48.856;9.088;2023-07-31T04:53:53;97892.25;;;14.59;80.28
42601;BME280;28229;48.856;9.088;2023-07-31T04:56:19;97888.81;;;14.59;79.72
42601;BME280;28229;48.856;9.088;2023-07-31T04:58:47;97889.38;;;14.61;80.20
42601;BME280;28229;48.856;9.088;2023-07-31T05:01:14;97887.88;;;14.70;80.00
42601;BME280;28229;48.856;9.088;2023-07-31T05:03:40;97879.94;;;14.70;80.73
42601;BME280;28229;48.856;9.088;2023-07-31T05:06:06;97875.19;;;14.72;79.76
42601;BME280;28229;48.856;9.088;2023-07-31T05:08:32;97875.19;;;14.72;80.24
42601;BME280;28229;48.856;9.088;2023-07-31T05:10:59;97874.06;;;14.85;79.17
42601;BME280;28229;48.856;9.088;2023-07-31T05:13:25;97870.34;;;14.86;78.71
42601;BME280;28229;48.856;9.088;2023-07-31T05:15:51;97869.88;;;14.89;78.60
42601;BME280;28229;48.856;9.088;2023-07-31T05:18:17;97868.88;;;14.95;78.96
42601;BME280;28229;48.856;9.088;2023-07-31T05:20:43;97867.53;;;14.93;78.38
42601;BME280;28229;48.856;9.088;2023-07-31T05:23:10;97876.09;;;15.00;77.94
42601;BME280;28229;48.856;9.088;2023-07-31T05:25:36;97880.38;;;15.06;77.95
42601;BME280;28229;48.856;9.088;2023-07-31T05:28:02;97878.84;;;15.10;78.11
42601;BME280;28229;48.856;9.088;2023-07-31T05:30:31;97877.13;;;15.21;77.05
42601;BME280;28229;48.856;9.088;2023-07-31T05:32:58;97881.97;;;15.29;76.71
42601;BME280;28229;48.856;9.088;2023-07-31T05:35:24;97879.13;;;15.36;76.16
42601;BME280;28229;48.856;9.088;2023-07-31T05:37:50;97884.53;;;15.46;75.76
42601;BME280;28229;48.856;9.088;2023-07-31T05:40:16;97873.75;;;15.53;74.71
42601;BME280;28229;48.856;9.088;2023-07-31T05:42:42;97872.72;;;15.59;74.64
42601;BME280;28229;48.856;9.088;2023-07-31T05:45:09;97874.63;;;15.64;73.98
42601;BME280;28229;48.856;9.088;2023-07-31T05:47:35;97865.91;;;15.68;74.86
42601;BME280;28229;48.856;9.088;2023-07-31T05:50:01;97869.94;;;15.71;74.53
42601;BME280;28229;48.856;9.088;2023-07-31T05:52:28;97860.44;;;15.75;74.93
42601;BME280;28229;48.856;9.088;2023-07-31T05:54:55;97869.00;;;15.82;74.79
42601;BME280;28229;48.856;9.088;2023-07-31T05:57:21;97874.88;;;15.89;74.28
42601;BME280;28229;48.856;9.088;2023-07-31T05:59:47;97872.03;;;15.96;74.24
42601;BME280;28229;48.856;9.088;2023-07-31T06:02:13;97869.66;;;15.99;73.07
42601;BME280;28229;48.856;9.088;2023-07-31T06:04:39;97874.44;;;15.97;74.21
42601;BME280;28229;48.856;9.088;2023-07-31T06:07:06;97868.38;;;16.07;74.35
42601;BME280;28229;48.856;9.088;2023-07-31T06:09:32;97875.09;;;16.15;73.55
42601;BME280;28229;48.856;9.088;2023-07-31T06:11:58;97877.38;;;16.39;72.06
42601;BME280;28229;48.856;9.088;2023-07-31T06:14:24;97877.69;;;16.47;72.80
42601;BME280;28229;48.856;9.088;2023-07-31T06:16:50;97873.75;;;16.55;71.33
42601;BME280;28229;48.856;9.088;2023-07-31T06:19:16;97868.44;;;16.55;71.24
42601;BME280;28229;48.856;9.088;2023-07-31T06:21:43;97868.19;;;16.56;71.05
42601;BME280;28229;48.856;9.088;2023-07-31T06:24:09;97871.41;;;16.64;70.56
42601;BME280;28229;48.856;9.088;2023-07-31T06:26:36;97870.16;;;16.82;69.92
42601;BME280;28229;48.856;9.088;2023-07-31T06:29:02;97873.72;;;16.98;69.40
42601;BME280;28229;48.856;9.088;2023-07-31T06:31:28;97862.31;;;17.12;68.72
42601;BME280;28229;48.856;9.088;2023-07-31T06:33:54;97867.16;;;17.26;68.10
42601;BME280;28229;48.856;9.088;2023-07-31T06:36:21;97865.31;;;17.31;66.93
42601;BME280;28229;48.856;9.088;2023-07-31T06:38:47;97865.59;;;17.35;67.69
42601;BME280;28229;48.856;9.088;2023-07-31T06:41:13;97864.81;;;17.40;67.67
42601;BME280;28229;48.856;9.088;2023-07-31T06:43:40;97870.91;;;17.40;67.18
42601;BME280;28229;48.856;9.088;2023-07-31T06:46:06;97877.84;;;17.57;66.67
42601;BME280;28229;48.856;9.088;2023-07-31T06:48:33;97876.81;;;17.78;64.91
42601;BME280;28229;48.856;9.088;2023-07-31T06:51:03;97868.34;;;17.97;65.07
42601;BME280;28229;48.856;9.088;2023-07-31T06:53:30;97872.84;;;18.17;64.19
42601;BME280;28229;48.856;9.088;2023-07-31T06:55:56;97875.22;;;18.34;62.93
42601;BME280;28229;48.856;9.088;2023-07-31T06:58:22;97874.94;;;18.35;61.65
42601;BME280;28229;48.856;9.088;2023-07-31T07:00:48;97878.97;;;18.33;61.45
42601;BME280;28229;48.856;9.088;2023-07-31T07:03:20;97881.09;;;18.31;61.51
42601;BME280;28229;48.856;9.088;2023-07-31T07:05:46;97870.97;;;18.38;61.51
42601;BME280;28229;48.856;9.088;2023-07-31T07:08:12;97871.69;;;18.54;61.17
42601;BME280;28229;48.856;9.088;2023-07-31T07:10:39;97868.75;;;18.71;60.97
42601;BME280;28229;48.856;9.088;2023-07-31T07:13:05;97873.50;;;18.84;59.69
42601;BME280;28229;48.856;9.088;2023-07-31T07:15:31;97872.97;;;18.87;58.87
42601;BME280;28229;48.856;9.088;2023-07-31T07:18:14;97872.94;;;18.92;59.53
42601;BME280;28229;48.856;9.088;2023-07-31T07:20:46;97858.34;;;18.85;59.84
42601;BME280;28229;48.856;9.088;2023-07-31T07:23:13;97861.78;;;18.90;58.29
42601;BME280;28229;48.856;9.088;2023-07-31T07:25:39;97857.22;;;18.91;58.60
42601;BME280;28229;48.856;9.088;2023-07-31T07:28:06;97863.38;;;18.81;58.74
42601;BME280;28229;48.856;9.088;2023-07-31T07:30:32;97850.06;;;18.76;59.08
42601;BME280;28229;48.856;9.088;2023-07-31T07:33:00;97855.94;;;18.73;59.03
42601;BME280;28229;48.856;9.088;2023-07-31T07:35:26;97857.53;;;18.74;59.88
42601;BME280;28229;48.856;9.088;2023-07-31T07:37:52;97864.72;;;18.78;60.79
42601;BME280;28229;48.856;9.088;2023-07-31T07:40:20;97850.84;;;18.92;59.97
42601;BME280;28229;48.856;9.088;2023-07-31T07:42:46;97844.16;;;18.89;58.56
42601;BME280;28229;48.856;9.088;2023-07-31T07:45:12;97849.47;;;18.99;58.90
42601;BME280;28229;48.856;9.088;2023-07-31T07:47:42;97854.81;;;18.94;57.56
42601;BME280;28229;48.856;9.088;2023-07-31T07:50:08;97851.06;;;19.00;56.43
42601;BME280;28229;48.856;9.088;2023-07-31T07:52:35;97849.94;;;19.12;56.34
42601;BME280;28229;48.856;9.088;2023-07-31T07:55:01;97844.28;;;19.24;57.83
42601;BME280;28229;48.856;9.088;2023-07-31T07:57:27;97842.84;;;19.42;56.74
42601;BME280;28229;48.856;9.088;2023-07-31T07:59:54;97863.28;;;19.56;55.37
42601;BME280;28229;48.856;9.088;2023-07-31T08:02:21;97848.16;;;19.47;55.53
42601;BME280;28229;48.856;9.088;2023-07-31T08:04:47;97851.88;;;19.46;56.91
42601;BME280;28229;48.856;9.088;2023-07-31T08:07:14;97851.84;;;19.51;56.35
42601;BME280;28229;48.856;9.088;2023-07-31T08:09:40;97844.88;;;19.55;56.11
42601;BME280;28229;48.856;9.088;2023-07-31T08:12:07;97833.66;;;19.58;56.74
42601;BME280;28229;48.856;9.088;2023-07-31T08:14:33;97845.44;;;19.52;55.99
42601;BME280;28229;48.856;9.088;2023-07-31T08:17:00;97846.84;;;19.39;56.44
42601;BME280;28229;48.856;9.088;2023-07-31T08:19:26;97836.00;;;19.25;57.24
42601;BME280;28229;48.856;9.088;2023-07-31T08:21:52;97833.78;;;19.37;58.02
42601;BME280;28229;48.856;9.088;2023-07-31T08:24:18;97831.59;;;19.45;57.63
42601;BME280;28229;48.856;9.088;2023-07-31T08:26:44;97835.25;;;19.59;56.53
42601;BME280;28229;48.856;9.088;2023-07-31T08:29:11;97823.03;;;19.48;56.43
42601;BME280;28229;48.856;9.088;2023-07-31T08:31:37;97820.81;;;19.60;56.72
42601;BME280;28229;48.856;9.088;2023-07-31T08:34:03;97814.97;;;19.58;55.66
42601;BME280;28229;48.856;9.088;2023-07-31T08:36:29;97823.16;;;19.72;56.80
42601;BME280;28229;48.856;9.088;2023-07-31T08:38:55;97825.56;;;19.73;56.32
42601;BME280;28229;48.856;9.088;2023-07-31T08:41:21;97830.16;;;19.63;55.96
42601;BME280;28229;48.856;9.088;2023-07-31T08:43:49;97829.69;;;19.55;56.38
42601;BME280;28229;48.856;9.088;2023-07-31T08:46:15;97823.28;;;19.51;56.19
42601;BME280;28229;48.856;9.088;2023-07-31T08:48:42;97820.28;;;19.63;55.59
42601;BME280;28229;48.856;9.088;2023-07-31T08:51:09;97817.28;;;19.70;55.56
42601;BME280;28229;48.856;9.088;2023-07-31T08:53:37;97826.13;;;19.65;55.95
42601;BME280;28229;48.856;9.088;2023-07-31T08:56:03;97823.41;;;19.75;56.37
42601;BME280;28229;48.856;9.088;2023-07-31T08:58:32;97823.38;;;19.81;55.91
42601;BME280;28229;48.856;9.088;2023-07-31T09:01:01;97815.50;;;19.94;56.12
42601;BME280;28229;48.856;9.088;2023-07-31T09:03:28;97806.31;;;20.06;56.37
42601;BME280;28229;48.856;9.088;2023-07-31T09:05:58;97797.44;;;20.10;55.58
42601;BME280;28229;48.856;9.088;2023-07-31T09:08:26;97803.56;;;20.16;55.02
42601;BME280;28229;48.856;9.088;2023-07-31T09:10:59;97803.75;;;19.95;54.74
42601;BME280;28229;48.856;9.088;2023-07-31T09:13:28;97793.50;;;20.08;55.09
42601;BME280;28229;48.856;9.088;2023-07-31T09:15:54;97799.97;;;20.26;54.02
42601;BME280;28229;48.856;9.088;2023-07-31T09:18:20;97801.91;;;20.44;54.09
42601;BME280;28229;48.856;9.088;2023-07-31T09:21:04;97793.84;;;20.73;53.44
42601;BME280;28229;48.856;9.088;2023-07-31T09:23:41;97804.72;;;21.01;53.37
42601;BME280;28229;48.856;9.088;2023-07-31T09:26:08;97801.47;;;21.23;52.68
42601;BME280;28229;48.856;9.088;2023-07-31T09:28:35;97784.81;;;21.26;51.58
42601;BME280;28229;48.856;9.088;2023-07-31T09:31:01;97793.06;;;21.30;51.75
42601;BME280;28229;48.856;9.088;2023-07-31T09:33:27;97788.06;;;21.42;50.61
42601;BME280;28229;48.856;9.088;2023-07-31T09:36:24;97789.41;;;21.78;50.41
42601;BME280;28229;48.856;9.088;2023-07-31T09:38:50;97787.69;;;22.15;49.84
42601;BME280;28229;48.856;9.088;2023-07-31T09:41:16;97773.00;;;22.12;48.96
42601;BME280;28229;48.856;9.088;2023-07-31T09:43:53;97772.50;;;22.10;49.24
42601;BME280;28229;48.856;9.088;2023-07-31T09:46:22;97765.28;;;22.11;49.07
42601;BME280;28229;48.856;9.088;2023-07-31T09:48:48;97763.28;;;22.16;49.35
42601;BME280;28229;48.856;9.088;2023-07-31T09:51:14;97754.78;;;22.28;48.07
42601;BME280;28229;48.856;9.088;2023-07-31T09:53:40;97752.13;;;22.28;48.92
42601;BME280;28229;48.856;9.088;2023-07-31T09:56:06;97755.69;;;21.91;48.39
42601;BME280;28229;48.856;9.088;2023-07-31T09:58:34;97745.78;;;21.77;48.67
42601;BME280;28229;48.856;9.088;2023-07-31T10:01:05;97763.28;;;22.16;49.50
42601;BME280;28229;48.856;9.088;2023-07-31T10:03:32;97758.75;;;22.58;47.87
42601;BME280;28229;48.856;9.088;2023-07-31T10:05:59;97755.09;;;22.91;47.93
42601;BME280;28229;48.856;9.088;2023-07-31T10:08:28;97758.09;;;23.26;46.92
42601;BME280;28229;48.856;9.088;2023-07-31T10:10:59;97753.81;;;23.47;45.79
42601;BME280;28229;48.856;9.088;2023-07-31T10:13:30;97744.84;;;23.29;46.32
42601;BME280;28229;48.856;9.088;2023-07-31T10:15:59;97729.53;;;23.07;45.81
42601;BME280;28229;48.856;9.088;2023-07-31T10:18:27;97733.91;;;23.03;46.27
42601;BME280;28229;48.856;9.088;2023-07-31T10:20:54;97729.44;;;23.12;45.61
42601;BME280;28229;48.856;9.088;2023-07-31T10:23:22;97738.34;;;23.22;45.76
42601;BME280;28229;48.856;9.088;2023-07-31T10:25:51;97726.22;;;23.55;45.67
42601;BME280;28229;48.856;9.088;2023-07-31T10:28:19;97717.44;;;23.64;44.22
42601;BME280;28229;48.856;9.088;2023-07-31T10:30:46;97724.38;;;23.65;43.98
42601;BME280;28229;48.856;9.088;2023-07-31T10:33:17;97711.91;;;23.69;45.18
42601;BME280;28229;48.856;9.088;2023-07-31T10:35:43;97704.31;;;23.93;44.56
42601;BME280;28229;48.856;9.088;2023-07-31T10:38:11;97716.25;;;24.19;43.29
42601;BME280;28229;48.856;9.088;2023-07-31T10:40:40;97722.78;;;24.26;41.84
42601;BME280;28229;48.856;9.088;2023-07-31T10:43:07;97723.06;;;24.16;44.01
42601;BME280;28229;48.856;9.088;2023-07-31T10:45:39;97719.28;;;24.17;41.75
42601;BME280;28229;48.856;9.088;2023-07-31T10:48:07;97725.00;;;24.24;42.30
42601;BME280;28229;48.856;9.088;2023-07-31T10:50:40;97720.00;;;24.00;43.67
42601;BME280;28229;48.856;9.088;2023-07-31T10:53:23;97716.56;;;24.08;43.02
42601;BME280;28229;48.856;9.088;2023-07-31T10:55:49;97710.38;;;24.08;42.58
42601;BME280;28229;48.856;9.088;2023-07-31T10:58:19;97715.72;;;23.90;43.63
42601;BME280;28229;48.856;9.088;2023-07-31T11:01:02;97709.44;;;24.04;44.98
42601;BME280;28229;48.856;9.088;2023-07-31T11:03:49;97701.72;;;24.20;43.79
42601;BME280;28229;48.856;9.088;2023-07-31T11:06:18;97699.00;;;24.11;43.89
42601;BME280;28229;48.856;9.088;2023-07-31T11:08:46;97700.13;;;24.19;43.03
42601;BME280;28229;48.856;9.088;2023-07-31T11:11:14;97707.13;;;24.28;42.42
42601;BME280;28229;48.856;9.088;2023-07-31T11:16:10;97696.97;;;24.17;43.14
42601;BME280;28229;48.856;9.088;2023-07-31T11:18:38;97695.56;;;24.19;42.89
42601;BME280;28229;48.856;9.088;2023-07-31T11:21:05;97695.91;;;24.26;43.62
42601;BME280;28229;48.856;9.088;2023-07-31T11:23:31;97696.66;;;24.18;43.54
42601;BME280;28229;48.856;9.088;2023-07-31T11:26:01;97698.03;;;23.98;43.96
42601;BME280;28229;48.856;9.088;2023-07-31T11:28:34;97686.53;;;23.75;43.31
42601;BME280;28229;48.856;9.088;2023-07-31T11:31:02;97692.81;;;23.70;43.86
42601;BME280;28229;48.856;9.088;2023-07-31T11:33:28;97700.09;;;23.70;44.12
42601;BME280;28229;48.856;9.088;2023-07-31T11:35:55;97695.06;;;23.77;44.71
42601;BME280;28229;48.856;9.088;2023-07-31T11:38:22;97689.69;;;23.77;44.58
42601;BME280;28229;48.856;9.088;2023-07-31T11:40:53;97693.44;;;23.67;43.77
42601;BME280;28229;48.856;9.088;2023-07-31T11:43:20;97689.03;;;23.71;43.84
42601;BME280;28229;48.856;9.088;2023-07-31T11:45:48;97683.81;;;23.66;44.98
42601;BME280;28229;48.856;9.088;2023-07-31T11:48:37;97685.31;;;23.50;43.04
42601;BME280;28229;48.856;9.088;2023-07-31T11:51:05;97679.03;;;23.32;44.17
42601;BME280;28229;48.856;9.088;2023-07-31T11:53:39;97670.59;;;23.47;44.07
42601;BME280;28229;48.856;9.088;2023-07-31T11:56:07;97661.41;;;24.11;44.23
42601;BME280;28229;48.856;9.088;2023-07-31T11:58:35;97667.31;;;24.39;43.42
42601;BME280;28229;48.856;9.088;2023-07-31T12:01:02;97659.06;;;24.27;41.89
42601;BME280;28229;48.856;9.088;2023-07-31T12:03:32;97659.38;;;24.25;42.18
42601;BME280;28229;48.856;9.088;2023-07-31T12:05:59;97658.91;;;24.23;42.76
42601;BME280;28229;48.856;9.088;2023-07-31T12:08:26;97652.03;;;24.00;42.69
42601;BME280;28229;48.856;9.088;2023-07-31T12:10:53;97647.16;;;24.02;43.29
42601;BME280;28229;48.856;9.088;2023-07-31T12:13:24;97648.88;;;23.98;43.65
42601;BME280;28229;48.856;9.088;2023-07-31T12:15:56;97649.03;;;23.92;43.62
42601;BME280;28229;48.856;9.088;2023-07-31T12:18:25;97653.00;;;24.04;43.82
42601;BME280;28229;48.856;9.088;2023-07-31T12:21:00;97647.47;;;24.09;45.00
42601;BME280;28229;48.856;9.088;2023-07-31T12:23:28;97643.38;;;24.11;44.53
42601;BME280;28229;48.856;9.088;2023-07-31T12:26:01;97642.94;;;24.27;44.77
42601;BME280;28229;48.856;9.088;2023-07-31T12:28:28;97634.69;;;24.23;43.70
42601;BME280;28229;48.856;9.088;2023-07-31T12:30:59;97628.22;;;24.24;44.39
42601;BME280;28229;48.856;9.088;2023-07-31T12:33:33;97626.78;;;24.18;43.20
42601;BME280;28229;48.856;9.088;2023-07-31T12:36:01;97621.09;;;24.11;43.21
42601;BME280;28229;48.856;9.088;2023-07-31T12:38:29;97615.84;;;24.06;43.61
42601;BME280;28229;48.856;9.088;2023-07-31T12:40:55;97623.91;;;24.06;43.64
42601;BME280;28229;48.856;9.088;2023-07-31T12:43:22;97620.44;;;24.05;43.94
42601;BME280;28229;48.856;9.088;2023-07-31T12:45:48;97619.00;;;24.08;42.36
42601;BME280;28229;48.856;9.088;2023-07-31T12:48:14;97614.94;;;24.19;43.11
42601;BME280;28229;48.856;9.088;2023-07-31T12:50:45;97604.84;;;24.33;43.26
42601;BME280;28229;48.856;9.088;2023-07-31T12:53:11;97606.25;;;24.40;42.57
42601;BME280;28229;48.856;9.088;2023-07-31T12:55:37;97599.31;;;24.39;42.87
42601;BME280;28229;48.856;9.088;2023-07-31T12:58:03;97603.03;;;23.94;43.80
42601;BME280;28229;48.856;9.088;2023-07-31T13:00:30;97587.56;;;23.60;43.71
42601;BME280;28229;48.856;9.088;2023-07-31T13:02:56;97584.06;;;23.50;44.64
42601;BME280;28229;48.856;9.088;2023-07-31T13:05:22;97588.13;;;23.39;44.72
42601;BME280;28229;48.856;9.088;2023-07-31T13:07:48;97581.97;;;23.38;44.60
42601;BME280;28229;48.856;9.088;2023-07-31T13:10:15;97590.34;;;23.37;44.98
42601;BME280;28229;48.856;9.088;2023-07-31T13:12:41;97589.00;;;23.26;44.66